createdAt,value
2018-06-19T00:01:47.725Z,16.80
2018-06-19T00:04:18.976Z,16.70
2018-06-19T00:06:49.517Z,16.90
2018-06-19T00:09:20.124Z,16.90
2018-06-19T00:14:25.803Z,17.10
2018-06-19T00:19:29.785Z,17.00
2018-06-19T00:22:02.745Z,16.90
2018-06-19T00:24:33.367Z,17.00
2018-06-19T00:27:04.126Z,17.10
2018-06-19T00:29:34.797Z,17.00
2018-06-19T00:32:05.481Z,16.90
2018-06-19T00:34:36.156Z,16.90
2018-06-19T00:37:06.974Z,16.90
2018-06-19T00:39:38.387Z,16.90
2018-06-19T00:42:08.856Z,16.90
2018-06-19T00:44:39.647Z,17.00
2018-06-19T00:47:10.377Z,17.00
2018-06-19T00:49:41.147Z,16.90
2018-06-19T00:52:11.755Z,16.90
2018-06-19T00:54:42.267Z,16.90
2018-06-19T00:57:12.943Z,16.90
2018-06-19T00:59:43.629Z,16.70
2018-06-19T01:02:14.302Z,16.60
2018-06-19T01:04:45.032Z,16.60
2018-06-19T01:07:15.841Z,16.60
2018-06-19T01:09:46.468Z,16.50
2018-06-19T01:12:17.447Z,16.60
2018-06-19T01:14:48.012Z,16.60
2018-06-19T01:17:18.641Z,16.60
2018-06-19T01:19:49.215Z,16.50
2018-06-19T01:22:19.837Z,16.50
2018-06-19T01:24:50.399Z,16.50
2018-06-19T01:27:21.013Z,16.40
2018-06-19T01:29:51.637Z,16.50
2018-06-19T01:32:22.328Z,16.60
2018-06-19T01:34:53.049Z,16.50
2018-06-19T01:37:23.695Z,16.40
2018-06-19T01:42:24.452Z,16.20
2018-06-19T01:44:55.128Z,16.20
2018-06-19T01:47:25.839Z,16.30
2018-06-19T01:52:26.669Z,16.40
2018-06-19T01:54:57.948Z,16.50
2018-06-19T01:57:28.651Z,16.50
2018-06-19T01:59:59.598Z,16.50
2018-06-19T02:02:30.209Z,16.40
2018-06-19T02:05:00.781Z,16.30
2018-06-19T02:07:31.624Z,16.20
2018-06-19T02:10:02.356Z,16.20
2018-06-19T02:12:33.330Z,16.10
2018-06-19T02:15:03.884Z,16.10
2018-06-19T02:17:34.365Z,16.00
2018-06-19T02:20:05.710Z,16.00
2018-06-19T02:22:36.350Z,15.90
2018-06-19T02:25:11.801Z,15.90
2018-06-19T02:27:42.492Z,15.80
2018-06-19T02:32:43.531Z,15.70
2018-06-19T02:37:45.119Z,15.80
2018-06-19T02:40:15.917Z,15.90
2018-06-19T02:42:46.689Z,15.90
2018-06-19T02:45:17.451Z,15.90
2018-06-19T02:47:47.937Z,15.90
2018-06-19T02:50:18.510Z,15.90
2018-06-19T02:52:49.117Z,15.90
2018-06-19T02:55:19.776Z,15.90
2018-06-19T02:57:51.281Z,15.90
2018-06-19T03:00:22.384Z,15.90
2018-06-19T03:02:53.040Z,16.00
2018-06-19T03:05:23.828Z,16.00
2018-06-19T03:07:54.775Z,16.00
2018-06-19T03:10:25.395Z,16.10
2018-06-19T03:12:56.094Z,16.20
2018-06-19T03:15:26.648Z,16.30
2018-06-19T03:17:57.315Z,16.30
2018-06-19T03:20:27.945Z,16.30
2018-06-19T03:23:05.343Z,16.30
2018-06-19T03:25:36.054Z,16.20
2018-06-19T03:28:06.764Z,16.10
2018-06-19T03:30:37.754Z,16.10
2018-06-19T03:33:08.580Z,16.10
2018-06-19T03:35:39.186Z,16.10
2018-06-19T03:38:09.768Z,16.10
2018-06-19T03:40:40.453Z,16.10
2018-06-19T03:43:11.159Z,16.10
2018-06-19T03:45:41.894Z,16.10
2018-06-19T03:50:42.582Z,16.10
2018-06-19T03:53:13.297Z,16.20
2018-06-19T03:55:43.817Z,16.30
2018-06-19T03:58:14.540Z,16.30
2018-06-19T04:00:45.289Z,16.30
2018-06-19T04:13:20.531Z,16.40
2018-06-19T04:15:51.234Z,16.50
2018-06-19T04:18:21.863Z,16.50
2018-06-19T04:20:52.598Z,16.50
2018-06-19T04:23:23.325Z,16.60
2018-06-19T04:25:54.049Z,16.60
2018-06-19T04:30:55.210Z,16.60
2018-06-19T04:38:26.099Z,16.70
2018-06-19T04:40:57.562Z,16.80
2018-06-19T04:43:28.465Z,16.80
2018-06-19T04:48:29.354Z,16.70
2018-06-19T04:50:59.905Z,16.60
2018-06-19T04:53:30.516Z,16.60
2018-06-19T04:56:01.109Z,16.60
2018-06-19T04:58:31.833Z,16.60
2018-06-19T05:01:02.393Z,16.60
2018-06-19T05:03:32.945Z,16.60
2018-06-19T05:06:03.605Z,16.50
2018-06-19T05:08:34.092Z,16.80
2018-06-19T05:11:04.753Z,17.30
2018-06-19T05:13:35.433Z,18.50
2018-06-19T05:16:06.318Z,19.10
2018-06-19T05:18:37.080Z,19.00
2018-06-19T05:21:07.784Z,20.20
2018-06-19T05:23:38.520Z,22.40
2018-06-19T05:26:09.168Z,24.30
2018-06-19T05:28:39.732Z,25.90
2018-06-19T05:31:10.192Z,26.80
2018-06-19T05:33:41.298Z,27.50
2018-06-19T05:36:11.937Z,28.30
2018-06-19T05:38:42.717Z,29.00
2018-06-19T05:41:13.684Z,29.90
2018-06-19T05:43:45.112Z,31.20
2018-06-19T05:46:15.844Z,31.90
2018-06-19T05:48:46.454Z,32.70
2018-06-19T05:51:17.136Z,33.20
2018-06-19T05:53:48.920Z,32.40
2018-06-19T05:56:19.490Z,31.90
2018-06-19T05:58:50.089Z,31.80
2018-06-19T06:01:21.378Z,32.40
2018-06-19T06:03:52.372Z,32.80
2018-06-19T06:06:22.852Z,33.30
2018-06-19T06:08:53.343Z,34.10
2018-06-19T06:11:23.961Z,34.60
2018-06-19T06:13:54.530Z,35.10
2018-06-19T06:16:25.273Z,33.90
2018-06-19T06:18:55.859Z,33.40
2018-06-19T06:21:26.344Z,33.00
2018-06-19T06:23:57.013Z,31.90
2018-06-19T06:26:27.500Z,31.60
2018-06-19T06:28:58.076Z,30.70
2018-06-19T06:31:28.574Z,30.00
2018-06-19T06:33:59.512Z,29.60
2018-06-19T06:36:30.054Z,29.50
2018-06-19T06:39:00.622Z,30.90
2018-06-19T06:41:31.200Z,31.10
2018-06-19T06:44:01.902Z,30.40
2018-06-19T06:46:32.420Z,30.10
2018-06-19T06:49:03.052Z,32.20
2018-06-19T06:51:33.722Z,33.30
2018-06-19T06:54:04.422Z,34.30
2018-06-19T06:56:34.969Z,34.80
2018-06-19T06:59:05.818Z,34.40
2018-06-19T07:01:36.448Z,35.20
2018-06-19T07:04:13.721Z,35.10
2018-06-19T07:06:44.743Z,36.00
2018-06-19T07:09:15.599Z,34.90
2018-06-19T07:11:46.367Z,33.60
2018-06-19T07:14:17.037Z,33.80
2018-06-19T07:16:47.777Z,33.10
2018-06-19T07:19:18.396Z,32.60
2018-06-19T07:21:49.839Z,32.30
2018-06-19T07:24:20.892Z,31.80
2018-06-19T07:26:51.664Z,30.00
2018-06-19T07:29:22.199Z,29.10
2018-06-19T07:31:52.876Z,27.90
2018-06-19T07:34:23.317Z,27.40
2018-06-19T07:36:54.004Z,26.90
2018-06-19T07:39:24.668Z,27.20
2018-06-19T07:41:55.446Z,27.70
2018-06-19T07:44:26.027Z,28.60
2018-06-19T07:46:56.471Z,28.80
2018-06-19T07:49:27.012Z,29.80
2018-06-19T07:51:57.788Z,29.70
2018-06-19T07:54:28.251Z,28.40
2018-06-19T07:56:59.006Z,27.90
2018-06-19T08:01:59.670Z,26.60
2018-06-19T08:04:30.208Z,26.10
2018-06-19T08:07:03.565Z,25.60
2018-06-19T08:09:34.295Z,24.90
2018-06-19T08:12:05.873Z,24.50
2018-06-19T08:14:36.843Z,23.80
2018-06-19T08:17:07.342Z,23.60
2018-06-19T08:19:38.070Z,23.70
2018-06-19T08:24:38.863Z,23.70
2018-06-19T08:27:09.899Z,23.60
2018-06-19T08:29:40.515Z,23.40
2018-06-19T08:32:11.130Z,23.00
2018-06-19T08:37:11.875Z,22.80
2018-06-19T08:39:42.697Z,23.00
2018-06-19T08:47:13.611Z,22.60
2018-06-19T08:49:44.418Z,22.70
2018-06-19T08:54:51.043Z,22.60
2018-06-19T08:57:21.670Z,22.60
2018-06-19T08:59:52.360Z,22.60
2018-06-19T09:02:23.014Z,22.70
2018-06-19T09:04:53.764Z,22.90
2018-06-19T09:07:24.997Z,22.80
2018-06-19T09:09:55.564Z,22.80
2018-06-19T09:12:26.288Z,22.80
2018-06-19T09:14:57.006Z,22.60
2018-06-19T09:17:27.734Z,22.50
2018-06-19T09:19:58.555Z,22.50
2018-06-19T09:22:29.152Z,22.60
2018-06-19T09:24:59.704Z,22.60
2018-06-19T09:27:30.359Z,22.70
2018-06-19T09:30:01.023Z,22.80
2018-06-19T09:32:31.732Z,22.90
2018-06-19T09:35:02.575Z,23.20
2018-06-19T09:37:33.284Z,23.50
2018-06-19T09:40:05.368Z,23.70
2018-06-19T09:42:35.870Z,24.10
2018-06-19T09:45:07.242Z,24.40
2018-06-19T09:47:37.856Z,24.30
2018-06-19T09:50:08.913Z,24.50
2018-06-19T09:52:39.609Z,25.70
2018-06-19T09:55:10.786Z,26.70
2018-06-19T09:57:41.305Z,27.30
2018-06-19T10:00:14.548Z,27.60
2018-06-19T10:02:45.250Z,28.10
2018-06-19T10:05:16.133Z,28.10
2018-06-19T10:07:46.693Z,27.50
2018-06-19T10:10:17.453Z,27.20
2018-06-19T10:12:47.972Z,26.70
2018-06-19T10:15:18.792Z,26.20
2018-06-19T10:17:49.553Z,26.00
2018-06-19T10:20:20.276Z,25.70
2018-06-19T10:22:50.999Z,25.70
2018-06-19T10:25:21.661Z,25.90
2018-06-19T10:27:52.294Z,25.90
2018-06-19T10:30:23.061Z,25.90
2018-06-19T10:32:53.618Z,26.00
2018-06-19T10:35:24.412Z,26.00
2018-06-19T10:37:55.006Z,26.20
2018-06-19T10:40:25.760Z,26.30
2018-06-19T10:42:56.368Z,26.50
2018-06-19T10:45:26.883Z,26.60
2018-06-19T10:47:57.446Z,27.90
2018-06-19T10:50:28.144Z,28.80
2018-06-19T10:52:58.913Z,28.80
2018-06-19T10:55:29.695Z,28.20
2018-06-19T10:58:00.349Z,27.90
2018-06-19T11:00:31.185Z,27.10
2018-06-19T11:03:01.995Z,26.70
2018-06-19T11:05:32.775Z,26.60
2018-06-19T11:08:03.724Z,26.80
2018-06-19T11:10:34.615Z,26.90
2018-06-19T11:13:05.565Z,26.80
2018-06-19T11:15:36.323Z,26.60
2018-06-19T11:18:07.868Z,26.50
2018-06-19T11:20:39.230Z,26.50
2018-06-19T11:23:09.982Z,26.70
2018-06-19T11:25:40.650Z,26.70
2018-06-19T11:28:11.447Z,26.40
2018-06-19T11:30:42.083Z,26.10
2018-06-19T11:33:12.669Z,26.00
2018-06-19T11:38:13.729Z,26.00
2018-06-19T11:40:44.857Z,26.10
2018-06-19T11:43:15.493Z,26.30
2018-06-19T11:45:46.533Z,26.00
2018-06-19T11:48:17.293Z,26.00
2018-06-19T11:50:48.748Z,26.10
2018-06-19T11:53:19.788Z,26.20
2018-06-19T11:55:50.531Z,26.30
2018-06-19T11:58:21.278Z,26.40
2018-06-19T12:00:52.234Z,26.60
2018-06-19T12:03:22.958Z,26.60
2018-06-19T12:05:53.714Z,26.60
2018-06-19T12:08:24.385Z,26.30
2018-06-19T12:10:55.070Z,26.20
2018-06-19T12:13:25.717Z,26.40
2018-06-19T12:15:56.390Z,26.60
2018-06-19T12:18:27.074Z,26.80
2018-06-19T12:20:58.751Z,26.80
2018-06-19T12:23:29.487Z,26.70
2018-06-19T12:26:00.429Z,26.70
2018-06-19T12:28:31.348Z,26.70
2018-06-19T12:31:02.808Z,26.40
2018-06-19T12:33:33.712Z,26.00
2018-06-19T12:36:04.292Z,26.00
2018-06-19T12:38:35.402Z,26.10
2018-06-19T12:41:06.120Z,26.40
2018-06-19T12:43:36.969Z,26.70
2018-06-19T12:46:07.638Z,26.90
2018-06-19T12:48:39.067Z,27.10
2018-06-19T12:52:24.266Z,26.70
2018-06-19T12:55:24.148Z,26.70
2018-06-19T12:57:55.795Z,26.70
2018-06-19T13:00:27.442Z,26.60
2018-06-19T13:03:15.025Z,26.60
2018-06-19T13:06:02.655Z,26.60
2018-06-19T13:08:33.717Z,26.70
2018-06-19T13:11:05.277Z,26.60
2018-06-19T13:13:54.368Z,26.30
2018-06-19T13:16:41.888Z,26.50
2018-06-19T13:19:29.245Z,26.20
2018-06-19T13:21:59.837Z,26.00
2018-06-19T13:27:01.597Z,26.00
2018-06-19T13:30:49.941Z,26.10
2018-06-19T13:33:20.546Z,26.10
2018-06-19T13:35:51.027Z,26.20
2018-06-19T13:38:21.722Z,26.30
2018-06-19T13:41:13.486Z,26.50
2018-06-19T13:44:02.236Z,26.80
2018-06-19T13:46:33.519Z,27.00
2018-06-19T13:49:04.183Z,27.20
2018-06-19T13:51:34.990Z,27.30
2018-06-19T13:54:06.007Z,27.40
2018-06-19T13:58:45.034Z,27.80
2018-06-19T14:01:16.077Z,27.50
2018-06-19T14:03:46.790Z,27.80
2018-06-19T14:06:17.566Z,27.60
2018-06-19T14:09:45.630Z,27.60
2018-06-19T14:12:58.494Z,27.10
2018-06-19T14:15:33.656Z,26.30
2018-06-19T14:18:04.542Z,26.10
2018-06-19T14:20:35.594Z,26.30
2018-06-19T14:23:06.356Z,26.60
2018-06-19T14:25:37.035Z,26.50
2018-06-19T14:28:07.653Z,26.50
2018-06-19T14:30:38.708Z,26.60
2018-06-19T14:33:09.544Z,26.90
2018-06-19T14:35:40.281Z,27.10
2018-06-19T14:38:10.964Z,27.20
2018-06-19T14:40:41.718Z,27.30
2018-06-19T14:43:12.464Z,27.10
2018-06-19T14:45:43.147Z,26.90
2018-06-19T14:48:13.800Z,27.10
2018-06-19T14:50:44.713Z,27.50
2018-06-19T14:53:15.472Z,27.70
2018-06-19T14:55:47.541Z,27.80
2018-06-19T14:58:18.453Z,27.70
2018-06-19T15:00:49.033Z,27.60
2018-06-19T15:03:19.889Z,27.50
2018-06-19T15:05:50.418Z,27.50
2018-06-19T15:08:21.149Z,27.30
2018-06-19T15:10:51.865Z,26.80
2018-06-19T15:13:22.730Z,26.50
2018-06-19T15:15:53.363Z,26.70
2018-06-19T15:18:24.084Z,26.70
2018-06-19T15:23:28.295Z,26.90
2018-06-19T15:25:59.064Z,27.00
2018-06-19T15:28:29.858Z,27.10
2018-06-19T15:33:30.827Z,27.30
2018-06-19T15:36:01.769Z,27.30
2018-06-19T15:41:02.406Z,27.00
2018-06-19T15:46:03.644Z,26.40
2018-06-19T15:48:34.760Z,26.60
2018-06-19T15:51:06.316Z,26.70
2018-06-19T15:53:37.101Z,26.60
2018-06-19T15:56:08.197Z,26.40
2018-06-19T15:58:38.796Z,26.30
2018-06-19T16:01:10.009Z,26.30
2018-06-19T16:03:40.528Z,26.70
2018-06-19T16:06:11.172Z,26.90
2018-06-19T16:11:12.268Z,26.80
2018-06-19T16:13:43.012Z,26.90
2018-06-19T16:16:14.122Z,26.70
2018-06-19T16:21:15.021Z,26.40
2018-06-19T16:28:46.273Z,26.40
2018-06-19T16:31:16.953Z,26.60
2018-06-19T16:33:49.156Z,26.70
2018-06-19T16:36:19.949Z,26.70
2018-06-19T16:38:50.841Z,26.90
2018-06-19T16:41:21.478Z,26.80
2018-06-19T16:43:52.107Z,26.80
2018-06-19T16:48:52.915Z,26.80
2018-06-19T16:51:23.451Z,26.70
2018-06-19T16:53:54.323Z,26.80
2018-06-19T16:56:25.014Z,26.60
2018-06-19T16:58:55.711Z,26.40
2018-06-19T17:01:26.520Z,26.40
2018-06-19T17:03:57.172Z,26.30
2018-06-19T17:06:27.916Z,26.20
2018-06-19T17:08:59.213Z,26.30
2018-06-19T17:11:30.094Z,26.40
2018-06-19T17:14:00.813Z,26.40
2018-06-19T17:16:31.675Z,26.30
2018-06-19T17:19:02.529Z,26.30
2018-06-19T17:21:34.138Z,26.20
2018-06-19T17:24:04.820Z,26.10
2018-06-19T17:26:35.500Z,26.00
2018-06-19T17:29:06.208Z,26.00
2018-06-19T17:31:37.145Z,26.00
2018-06-19T17:34:08.392Z,26.00
2018-06-19T17:36:39.112Z,25.80
2018-06-19T17:39:11.155Z,25.60
2018-06-19T17:41:41.938Z,25.50
2018-06-19T17:44:13.738Z,25.40
2018-06-19T17:46:44.394Z,25.20
2018-06-19T17:49:15.082Z,24.90
2018-06-19T17:51:45.723Z,24.70
2018-06-19T17:54:16.444Z,24.80
2018-06-19T17:56:47.114Z,24.90
2018-06-19T17:59:17.752Z,25.00
2018-06-19T18:01:48.553Z,25.00
2018-06-19T18:04:19.384Z,25.10
2018-06-19T18:09:20.127Z,24.90
2018-06-19T18:11:50.830Z,25.00
2018-06-19T18:14:28.307Z,24.90
2018-06-19T18:16:59.757Z,25.00
2018-06-19T18:19:30.521Z,24.90
2018-06-19T18:22:01.289Z,24.80
2018-06-19T18:24:31.917Z,24.60
2018-06-19T18:27:02.760Z,24.60
2018-06-19T18:29:33.482Z,24.60
2018-06-19T18:35:54.103Z,24.60
2018-06-19T18:38:25.192Z,24.40
2018-06-19T18:40:55.845Z,24.30
2018-06-19T18:43:26.545Z,24.10
2018-06-19T18:45:57.409Z,24.00
2018-06-19T18:48:28.512Z,23.70
2018-06-19T18:50:59.582Z,23.40
2018-06-19T18:53:30.864Z,23.30
2018-06-19T18:56:02.420Z,23.10
2018-06-19T18:58:33.816Z,22.90
2018-06-19T19:01:04.572Z,22.80
2018-06-19T19:03:35.166Z,22.60
2018-06-19T19:06:06.511Z,22.50
2018-06-19T19:11:08.189Z,22.20
2018-06-19T19:13:38.907Z,22.10
2018-06-19T19:18:50.565Z,21.90
2018-06-19T19:21:21.377Z,21.70
2018-06-19T19:23:52.454Z,21.50
2018-06-19T19:26:28.413Z,21.40
2018-06-19T19:29:04.533Z,21.30
2018-06-19T19:31:39.941Z,21.20
2018-06-19T19:34:10.803Z,21.10
2018-06-19T19:39:29.456Z,20.90
2018-06-19T19:42:00.445Z,20.80
2018-06-19T19:44:31.162Z,20.70
2018-06-19T19:47:06.892Z,20.60
2018-06-19T19:52:08.149Z,20.40
2018-06-19T19:54:39.005Z,20.40
2018-06-19T19:57:15.100Z,20.40
2018-06-19T19:59:46.003Z,20.30
2018-06-19T20:02:16.671Z,20.30
2018-06-19T20:04:47.525Z,20.20
2018-06-19T20:07:18.209Z,20.20
2018-06-19T20:09:49.209Z,20.20
2018-06-19T20:12:20.118Z,20.10
2018-06-19T20:14:50.873Z,20.10
2018-06-19T20:17:21.640Z,20.10
2018-06-19T20:19:52.448Z,20.00
2018-06-19T20:22:24.339Z,20.00
2018-06-19T20:29:55.504Z,20.00
2018-06-19T20:34:56.785Z,19.90
2018-06-19T20:37:27.594Z,19.90
2018-06-19T20:39:58.276Z,19.80
2018-06-19T20:42:29.097Z,19.80
2018-06-19T20:45:00.219Z,19.80
2018-06-19T20:47:31.619Z,19.70
2018-06-19T20:50:02.369Z,19.70
2018-06-19T20:52:33.241Z,19.70
2018-06-19T20:55:05.173Z,19.60
2018-06-19T20:57:36.013Z,19.60
2018-06-19T21:00:07.002Z,19.60
2018-06-19T21:02:38.285Z,19.50
2018-06-19T21:05:10.874Z,19.40
2018-06-19T21:07:41.841Z,19.40
2018-06-19T21:10:12.596Z,19.40
2018-06-19T21:12:44.597Z,19.30
2018-06-19T21:15:15.725Z,19.30
2018-06-19T21:20:17.300Z,19.40
2018-06-19T21:22:47.844Z,19.40
2018-06-19T21:25:18.882Z,19.40
2018-06-19T21:27:49.511Z,19.40
2018-06-19T21:30:20.166Z,19.40
2018-06-19T21:32:51.083Z,19.40
2018-06-19T21:35:21.946Z,19.40
2018-06-19T21:37:52.825Z,19.30
2018-06-19T21:40:23.577Z,19.40
2018-06-19T21:42:54.687Z,19.40
2018-06-19T21:45:25.474Z,19.30
2018-06-19T21:47:56.684Z,19.30
2018-06-19T21:50:27.709Z,19.30
2018-06-19T21:52:58.609Z,19.30
2018-06-19T21:55:29.656Z,19.40
2018-06-19T21:58:00.362Z,19.40
2018-06-19T22:00:31.227Z,19.40
2018-06-19T22:03:01.997Z,19.30
2018-06-19T22:05:32.988Z,19.40
2018-06-19T22:08:03.690Z,19.20
2018-06-19T22:10:34.347Z,19.20
2018-06-19T22:13:05.344Z,19.20
2018-06-19T22:15:36.037Z,19.10
2018-06-19T22:18:07.058Z,19.10
2018-06-19T22:20:37.801Z,19.20
2018-06-19T22:23:08.836Z,19.10
2018-06-19T22:25:39.619Z,19.00
2018-06-19T22:28:10.561Z,18.90
2018-06-19T22:30:41.427Z,19.00
2018-06-19T22:33:12.189Z,19.00
2018-06-19T22:35:42.719Z,18.90
2018-06-19T22:38:13.278Z,18.90
2018-06-19T22:40:43.752Z,19.00
2018-06-19T22:43:14.357Z,19.00
2018-06-19T22:45:51.573Z,19.00
2018-06-19T22:48:23.118Z,19.00
2018-06-19T22:50:54.045Z,19.20
2018-06-19T22:53:24.723Z,19.10
2018-06-19T22:55:55.313Z,19.10
2018-06-19T22:58:26.643Z,19.10
2018-06-19T23:00:57.197Z,19.10
2018-06-19T23:03:27.878Z,19.20
2018-06-19T23:05:58.564Z,19.20
2018-06-19T23:08:33.496Z,19.20
2018-06-19T23:11:04.736Z,19.20
2018-06-19T23:13:35.421Z,19.30
2018-06-19T23:16:05.926Z,19.20
2018-06-19T23:18:36.704Z,19.20
2018-06-19T23:23:37.564Z,19.30
2018-06-19T23:26:08.204Z,19.30
2018-06-19T23:28:38.759Z,19.20
2018-06-19T23:31:09.452Z,19.30
2018-06-19T23:33:40.054Z,19.40
2018-06-19T23:36:10.628Z,19.30
2018-06-19T23:38:41.079Z,19.10
2018-06-19T23:41:12.201Z,19.20
2018-06-19T23:43:42.816Z,19.20
2018-06-19T23:46:13.521Z,19.30
2018-06-19T23:48:44.294Z,19.20
2018-06-19T23:53:45.434Z,19.30
2018-06-19T23:56:16.103Z,19.30
2018-06-19T23:58:47.188Z,19.40
